Time;durP1;ratioP1;P1;durP2;ratioP2;P2;SDS_P1;SDS_P2;PMS_P1;PMS_P2;Temp;Humidity;BMP_temperature;BMP_pressure;BME280_temperature;BME280_humidity;BME280_pressure;Samples;Min_cycle;Max_cycle;Signal;HPM_P1;HPM_P2
2022/05/07 00:00:49;;;;;;;7.35;3.83;;;;;;;17.52;52.81;99622.12;1660984;85;20901;-67
2022/05/07 00:03:16;;;;;;;5.72;4.40;;;;;;;17.50;53.06;99622.02;1679116;85;21399;-67
2022/05/07 00:05:43;;;;;;;7.67;3.90;;;;;;;17.45;53.39;99619.98;1668922;85;21037;-67
2022/05/07 00:08:09;;;;;;;8.75;4.42;;;;;;;17.43;53.58;99625.26;1658791;85;20917;-67
2022/05/07 00:10:36;;;;;;;5.62;4.25;;;;;;;17.41;53.78;99622.80;1652490;85;21004;-67
2022/05/07 00:13:04;;;;;;;8.08;4.25;;;;;;;17.37;54.01;99625.58;1652351;85;21028;-67
2022/05/07 00:15:31;;;;;;;6.50;4.22;;;;;;;17.33;54.05;99620.33;1666453;85;21548;-67
2022/05/07 00:18:07;;;;;;;6.80;4.22;;;;;;;17.27;54.04;99621.16;1678747;85;21471;-67
2022/05/07 00:20:34;;;;;;;6.05;4.40;;;;;;;17.19;54.11;99624.89;1678706;85;20993;-67
2022/05/07 00:23:01;;;;;;;4.87;3.60;;;;;;;17.15;54.29;99624.19;1678758;85;21017;-67
2022/05/07 00:25:28;;;;;;;6.75;3.65;;;;;;;17.11;54.49;99626.45;1666877;85;21065;-67
2022/05/07 00:27:55;;;;;;;5.17;3.45;;;;;;;17.07;54.86;99623.89;1652242;85;21307;-67
2022/05/07 00:30:22;;;;;;;4.17;3.62;;;;;;;17.06;55.26;99631.62;1652352;85;20984;-67
2022/05/07 00:32:49;;;;;;;4.22;3.80;;;;;;;17.03;55.54;99624.48;1652316;85;20901;-68
2022/05/07 00:35:16;;;;;;;5.55;3.75;;;;;;;17.04;55.77;99614.89;1659301;85;20960;-66
2022/05/07 00:37:43;;;;;;;4.58;3.90;;;;;;;17.05;55.85;99615.18;1668177;86;20987;-67
2022/05/07 00:40:09;;;;;;;4.30;3.90;;;;;;;17.06;55.94;99613.33;1644144;86;21166;-67
2022/05/07 00:42:36;;;;;;;3.87;3.58;;;;;;;17.04;56.18;99606.83;1646371;86;21113;-66
2022/05/07 00:45:04;;;;;;;6.67;3.75;;;;;;;17.03;56.26;99605.16;1653791;86;21020;-67
2022/05/07 00:47:34;;;;;;;4.10;3.70;;;;;;;17.05;56.38;99599.05;1670150;86;21067;-67
2022/05/07 00:52:48;;;;;;;4.37;2.98;;;;;;;17.11;56.27;99600.91;1670109;85;21117;-67
2022/05/07 00:55:15;;;;;;;6.00;3.80;;;;;;;17.12;56.15;99600.41;1664993;85;21561;-66
2022/05/07 00:57:43;;;;;;;4.30;3.40;;;;;;;17.07;56.17;99601.55;1644222;86;21043;-67
2022/05/07 01:00:12;;;;;;;4.60;3.50;;;;;;;17.02;56.41;99596.81;1644176;86;20963;-66
2022/05/07 01:02:41;;;;;;;5.75;3.58;;;;;;;17.04;56.31;99599.28;1661648;84;21013;-67
2022/05/07 01:05:10;;;;;;;4.80;3.40;;;;;;;17.01;56.44;99588.43;1646913;86;22111;-67
2022/05/07 01:07:37;;;;;;;4.50;3.75;;;;;;;16.95;56.53;99585.22;1650542;86;20904;-67
2022/05/07 01:10:05;;;;;;;5.58;3.42;;;;;;;16.94;56.62;99590.81;1644266;86;21590;-67
2022/05/07 01:12:38;;;;;;;8.33;3.90;;;;;;;16.89;56.76;99587.93;1644578;86;21546;-66
2022/05/07 01:15:07;;;;;;;5.33;3.08;;;;;;;16.89;56.86;99590.11;1666604;86;21031;-67
2022/05/07 01:17:34;;;;;;;3.87;3.58;;;;;;;16.89;57.12;99594.14;1645797;85;21533;-67
2022/05/07 01:20:09;;;;;;;3.42;3.02;;;;;;;16.92;57.63;99595.58;1644233;86;21008;-67
2022/05/07 01:22:35;;;;;;;4.55;3.37;;;;;;;16.99;57.86;99601.77;1644390;86;21011;-67
2022/05/07 01:25:02;;;;;;;4.55;3.58;;;;;;;16.98;58.05;99602.28;1670106;86;21107;-67
2022/05/07 01:27:30;;;;;;;5.33;4.00;;;;;;;16.98;58.36;99594.73;1670350;86;20975;-67
2022/05/07 01:29:57;;;;;;;5.20;4.05;;;;;;;16.98;58.73;99600.93;1670360;85;21262;-66
2022/05/07 01:32:23;;;;;;;4.55;3.60;;;;;;;17.00;59.02;99600.20;1670247;85;21443;-66
2022/05/07 01:34:53;;;;;;;5.75;3.77;;;;;;;16.97;59.20;99601.95;1654477;86;20880;-67
2022/05/07 01:37:20;;;;;;;5.72;3.67;;;;;;;16.98;59.39;99605.48;1644202;86;20960;-67
2022/05/07 01:39:47;;;;;;;7.45;3.15;;;;;;;16.99;59.56;99599.91;1644160;86;21510;-69
2022/05/07 01:42:14;;;;;;;4.30;3.90;;;;;;;17.00;59.34;99605.58;1644119;86;21230;-69
2022/05/07 01:44:40;;;;;;;4.28;3.70;;;;;;;16.99;59.13;99599.91;1650507;86;21454;-70
2022/05/07 01:49:52;;;;;;;5.20;3.77;;;;;;;16.99;59.13;99601.25;1662846;86;21042;-69
2022/05/07 01:52:19;;;;;;;5.87;4.50;;;;;;;16.96;59.34;99603.52;1670304;85;20964;-70
2022/05/07 01:54:47;;;;;;;5.12;4.62;;;;;;;16.92;59.65;99599.07;1651962;85;21152;-68
2022/05/07 01:57:13;;;;;;;4.30;4.00;;;;;;;16.87;59.78;99598.06;1644192;86;21020;-67
2022/05/07 01:59:40;;;;;;;4.72;4.20;;;;;;;16.82;60.00;99596.48;1660159;84;20925;-68
2022/05/07 02:02:08;;;;;;;4.75;3.92;;;;;;;16.78;60.39;99600.64;1647184;85;20888;-67
2022/05/07 02:04:35;;;;;;;4.62;4.15;;;;;;;16.73;60.96;99595.89;1653544;86;21035;-67
2022/05/07 02:07:04;;;;;;;4.12;3.72;;;;;;;16.71;61.60;99592.59;1644274;86;21183;-67
2022/05/07 02:09:31;;;;;;;5.08;3.77;;;;;;;16.69;62.52;99595.98;1644441;86;21042;-67
2022/05/07 02:11:58;;;;;;;4.00;3.60;;;;;;;16.65;62.97;99598.27;1644105;86;20944;-67
2022/05/07 02:14:25;;;;;;;6.28;4.10;;;;;;;16.65;63.46;99591.56;1649368;86;21497;-68
2022/05/07 02:16:52;;;;;;;4.78;4.35;;;;;;;16.67;64.25;99588.66;1643594;86;20915;-67
2022/05/07 02:19:18;;;;;;;5.70;4.33;;;;;;;16.63;64.56;99596.83;1653398;86;21432;-67
2022/05/07 02:21:45;;;;;;;4.85;4.30;;;;;;;16.54;65.05;99592.17;1644135;86;20956;-67
2022/05/07 02:24:11;;;;;;;5.67;4.30;;;;;;;16.48;65.32;99589.42;1656369;86;21435;-67
2022/05/07 02:26:38;;;;;;;5.30;4.12;;;;;;;16.43;65.72;99593.24;1644226;86;21161;-67
2022/05/07 02:29:04;;;;;;;4.90;4.12;;;;;;;16.39;65.79;99591.50;1648599;84;20976;-67
2022/05/07 02:31:31;;;;;;;6.17;3.92;;;;;;;16.35;66.17;99586.73;1681006;84;21708;-67
2022/05/07 02:33:57;;;;;;;4.87;4.47;;;;;;;16.26;66.44;99595.52;1662774;85;20993;-67
2022/05/07 02:36:24;;;;;;;5.22;4.28;;;;;;;16.19;66.88;99591.16;1685611;84;20924;-67
2022/05/07 02:38:51;;;;;;;4.80;4.40;;;;;;;16.11;67.14;99588.67;1672945;84;21490;-67
2022/05/07 02:44:04;;;;;;;5.70;4.53;;;;;;;16.06;67.66;99590.59;1660987;85;21274;-66
2022/05/07 02:46:31;;;;;;;7.12;5.37;;;;;;;16.04;67.91;99596.17;1644119;86;21014;-67
2022/05/07 02:48:58;;;;;;;4.35;4.03;;;;;;;15.99;68.32;99602.66;1644119;86;20972;-67
2022/05/07 02:51:25;;;;;;;6.05;4.40;;;;;;;15.98;68.58;99598.86;1644073;86;20999;-66
2022/05/07 02:53:53;;;;;;;5.50;4.15;;;;;;;16.00;68.75;99596.79;1650998;86;21075;-66
2022/05/07 02:56:19;;;;;;;5.60;4.35;;;;;;;15.98;69.13;99601.54;1644180;86;21170;-66
2022/05/07 02:58:46;;;;;;;4.78;4.37;;;;;;;15.96;69.27;99598.20;1661783;86;21024;-66
2022/05/07 03:01:12;;;;;;;4.53;4.12;;;;;;;15.93;69.41;99595.92;1658978;85;21343;-66
2022/05/07 03:03:40;;;;;;;5.05;4.10;;;;;;;15.95;69.50;99601.94;1661348;86;20929;-66
2022/05/07 03:06:08;;;;;;;5.37;4.20;;;;;;;15.93;69.69;99595.41;1652951;86;21094;-70
2022/05/07 03:08:36;;;;;;;4.70;3.98;;;;;;;15.95;69.77;99597.91;1653270;86;22122;-70
2022/05/07 03:11:03;;;;;;;4.50;4.05;;;;;;;15.96;69.69;99603.06;1653015;86;21051;-68
2022/05/07 03:13:30;;;;;;;4.20;3.83;;;;;;;15.99;69.75;99604.01;1669278;86;21067;-66
2022/05/07 03:15:58;;;;;;;4.40;3.95;;;;;;;16.02;69.66;99600.09;1644385;85;21493;-66
2022/05/07 03:18:26;;;;;;;7.92;4.05;;;;;;;16.01;69.70;99602.45;1644184;86;21075;-68
2022/05/07 03:20:53;;;;;;;4.53;3.87;;;;;;;15.98;69.61;99598.31;1644154;86;21120;-67
2022/05/07 03:23:20;;;;;;;4.15;3.62;;;;;;;15.94;69.46;99598.42;1650854;86;20916;-69
2022/05/07 03:25:49;;;;;;;4.00;3.60;;;;;;;15.88;68.72;99596.53;1644486;86;20916;-67
2022/05/07 03:28:15;;;;;;;6.00;3.77;;;;;;;15.81;68.13;99598.38;1644080;86;21039;-67
2022/05/07 03:30:42;;;;;;;5.50;3.17;;;;;;;15.76;66.88;99600.84;1644248;86;20956;-66
2022/05/07 03:33:09;;;;;;;4.58;3.37;;;;;;;15.69;66.05;99604.02;1655328;86;21296;-70
2022/05/07 03:35:37;;;;;;;4.97;4.22;;;;;;;15.67;65.63;99605.24;1655897;84;20948;-68
2022/05/07 03:38:04;;;;;;;5.15;3.60;;;;;;;15.70;65.14;99604.81;1631239;86;21064;-67
2022/05/07 03:40:33;;;;;;;3.50;3.20;;;;;;;15.68;64.62;99603.69;1630349;86;21067;-67
2022/05/07 03:43:03;;;;;;;6.05;3.70;;;;;;;15.66;64.31;99608.43;1639180;86;21071;-69
2022/05/07 03:45:30;;;;;;;3.20;2.90;;;;;;;15.63;64.30;99603.45;1656258;86;21232;-68
2022/05/07 03:47:57;;;;;;;5.00;3.37;;;;;;;15.61;64.44;99603.34;1655928;85;20957;-69
2022/05/07 03:50:24;;;;;;;7.60;3.70;;;;;;;15.60;64.42;99607.88;1670495;86;20988;-65
2022/05/07 03:55:41;;;;;;;8.43;3.42;;;;;;;15.56;64.04;99609.82;1663501;86;20988;-68
2022/05/07 03:58:05;;;;;;;3.67;3.20;;;;;;;15.52;63.47;99617.42;1669881;85;21478;-67
2022/05/07 04:00:33;;;;;;;6.05;4.03;;;;;;;15.51;62.20;99621.66;1655901;86;21039;-68
2022/05/07 04:03:01;;;;;;;6.30;3.27;;;;;;;15.44;61.41;99620.23;1670027;86;21424;-65
2022/05/07 04:05:30;;;;;;;5.37;3.37;;;;;;;15.37;60.44;99623.40;1655785;86;21048;-66
2022/05/07 04:07:58;;;;;;;3.35;2.80;;;;;;;15.34;59.59;99623.28;1649669;86;20900;-69
2022/05/07 04:10:25;;;;;;;2.72;2.42;;;;;;;15.33;59.00;99624.80;1644036;86;21080;-68
2022/05/07 04:12:53;;;;;;;4.42;3.25;;;;;;;15.33;58.12;99628.82;1644089;86;21056;-66
2022/05/07 04:15:21;;;;;;;3.62;3.25;;;;;;;15.28;57.83;99627.25;1644901;85;20944;-66
2022/05/07 04:17:50;;;;;;;4.78;3.25;;;;;;;15.26;57.10;99622.60;1647420;86;20932;-66
2022/05/07 04:20:18;;;;;;;3.15;2.85;;;;;;;15.25;57.02;99623.11;1648808;86;21047;-66
2022/05/07 04:22:46;;;;;;;4.20;2.92;;;;;;;15.22;57.16;99630.22;1644401;85;21486;-66
2022/05/07 04:25:13;;;;;;;4.08;2.70;;;;;;;15.22;56.97;99621.35;1643960;86;21043;-66
2022/05/07 04:27:42;;;;;;;5.42;3.22;;;;;;;15.27;56.86;99624.27;1663196;86;21494;-67
2022/05/07 04:30:10;;;;;;;6.17;3.33;;;;;;;15.29;56.74;99623.55;1644096;86;20967;-65
2022/05/07 04:32:38;;;;;;;4.53;3.42;;;;;;;15.29;56.71;99625.73;1644139;86;20967;-67
2022/05/07 04:35:06;;;;;;;3.85;3.20;;;;;;;15.29;56.75;99620.87;1644129;86;21069;-67
2022/05/07 04:37:34;;;;;;;4.35;3.40;;;;;;;15.29;56.78;99619.53;1652903;86;20971;-66
2022/05/07 04:40:00;;;;;;;3.58;3.20;;;;;;;15.27;56.78;99621.08;1644060;86;21461;-68
2022/05/07 04:42:27;;;;;;;8.00;2.90;;;;;;;15.30;57.00;99623.34;1644099;86;21477;-67
2022/05/07 04:44:55;;;;;;;3.80;3.12;;;;;;;15.33;57.27;99620.78;1644646;85;21549;-67
2022/05/07 04:47:24;;;;;;;4.87;3.12;;;;;;;15.35;56.93;99622.27;1638580;86;21509;-66
2022/05/07 04:49:52;;;;;;;5.90;3.10;;;;;;;15.36;56.74;99625.25;1643981;86;20948;-68
2022/05/07 04:52:19;;;;;;;4.72;3.12;;;;;;;15.41;56.52;99624.64;1644155;86;20892;-66
2022/05/07 04:54:48;;;;;;;5.12;3.22;;;;;;;15.41;56.18;99617.94;1644127;86;21458;-68
2022/05/07 04:57:15;;;;;;;4.75;2.90;;;;;;;15.42;56.06;99619.61;1649331;86;21505;-66
2022/05/07 04:59:47;;;;;;;6.08;3.08;;;;;;;15.45;55.42;99616.54;1648971;85;21154;-66
2022/05/07 05:02:15;;;;;;;5.45;3.42;;;;;;;15.48;55.21;99623.39;1630401;86;20960;-66
2022/05/07 05:04:43;;;;;;;6.20;3.35;;;;;;;15.53;54.93;99623.11;1644678;85;20968;-67
2022/05/07 05:07:12;;;;;;;5.72;3.40;;;;;;;15.60;54.49;99615.09;1693842;84;21000;-66
2022/05/07 05:09:40;;;;;;;4.30;3.45;;;;;;;15.64;54.08;99619.87;1670259;86;20961;-67
2022/05/07 05:12:10;;;;;;;4.87;3.05;;;;;;;15.64;53.95;99622.55;1669994;85;21430;-66
2022/05/07 05:17:24;;;;;;;4.70;3.27;;;;;;;15.67;53.43;99622.67;1670062;85;21023;-65
2022/05/07 05:19:51;;;;;;;6.28;3.40;;;;;;;15.66;53.38;99623.17;1663426;86;20941;-66
2022/05/07 05:22:19;;;;;;;5.55;3.67;;;;;;;15.65;52.77;99623.36;1644181;86;20881;-67
2022/05/07 05:24:46;;;;;;;3.85;3.17;;;;;;;15.63;52.58;99622.73;1651221;84;21916;-66
2022/05/07 05:27:13;;;;;;;6.05;3.65;;;;;;;15.69;52.19;99619.27;1670153;86;21482;-67
2022/05/07 05:29:41;;;;;;;8.55;3.52;;;;;;;15.74;51.74;99620.84;1669834;85;20912;-65
2022/05/07 05:32:09;;;;;;;3.58;2.98;;;;;;;15.81;51.50;99628.39;1670086;85;20959;-66
2022/05/07 05:34:38;;;;;;;4.67;3.67;;;;;;;15.77;51.35;99629.29;1669980;85;21027;-67
2022/05/07 05:37:04;;;;;;;5.95;3.60;;;;;;;15.78;51.16;99627.44;1675718;84;21233;-66
2022/05/07 05:39:33;;;;;;;7.53;3.30;;;;;;;15.83;50.86;99628.50;1653479;85;21422;-66
2022/05/07 05:42:01;;;;;;;6.95;3.60;;;;;;;15.87;50.91;99628.94;1652406;85;20964;-67
2022/05/07 05:44:28;;;;;;;4.42;3.75;;;;;;;15.90;50.72;99641.95;1653907;85;20961;-66
2022/05/07 05:46:55;;;;;;;6.78;3.47;;;;;;;15.88;50.79;99640.80;1678933;85;21575;-65
2022/05/07 05:49:22;;;;;;;5.67;3.77;;;;;;;15.86;50.98;99646.88;1667374;85;21272;-66
2022/05/07 05:51:49;;;;;;;5.35;4.25;;;;;;;15.81;51.40;99641.30;1654578;85;20937;-66
2022/05/07 05:54:16;;;;;;;5.65;4.10;;;;;;;15.77;51.79;99652.09;1652532;85;21614;-66
2022/05/07 05:56:43;;;;;;;6.55;4.25;;;;;;;15.74;52.27;99650.34;1678274;85;21079;-66
2022/05/07 05:59:09;;;;;;;6.08;3.92;;;;;;;15.72;52.71;99651.86;1673415;85;20916;-67
2022/05/07 06:01:41;;;;;;;7.22;4.17;;;;;;;15.71;53.40;99647.55;1673990;83;21519;-66
2022/05/07 06:04:12;;;;;;;7.12;3.45;;;;;;;15.68;53.95;99648.44;1677911;85;20936;-66
2022/05/07 06:06:39;;;;;;;7.53;4.45;;;;;;;15.69;54.53;99653.62;1678910;85;20972;-67
2022/05/07 06:09:06;;;;;;;5.78;3.90;;;;;;;15.72;54.75;99656.42;1660879;85;21071;-67
2022/05/07 06:11:33;;;;;;;5.45;4.03;;;;;;;15.76;54.90;99658.50;1654664;85;21545;-65
2022/05/07 06:14:02;;;;;;;8.38;4.10;;;;;;;15.78;55.10;99664.48;1678585;83;21183;-67
2022/05/07 06:16:29;;;;;;;5.45;4.20;;;;;;;15.83;55.34;99662.54;1685120;83;21435;-67
2022/05/07 06:18:57;;;;;;;5.75;3.72;;;;;;;15.89;55.73;99664.44;1687758;84;20987;-66
2022/05/07 06:21:26;;;;;;;4.53;3.67;;;;;;;15.92;55.64;99664.88;1678250;85;21040;-67
2022/05/07 06:23:53;;;;;;;4.67;4.25;;;;;;;15.99;55.45;99671.09;1677681;85;21063;-66
2022/05/07 06:29:01;;;;;;;5.37;4.37;;;;;;;16.13;55.27;99673.82;1615117;86;20913;-66
2022/05/07 06:31:30;;;;;;;6.28;4.42;;;;;;;16.24;55.18;99674.05;1687698;83;21435;-65
2022/05/07 06:33:58;;;;;;;6.12;4.12;;;;;;;16.39;55.22;99673.91;1669389;85;20957;-64
2022/05/07 06:36:25;;;;;;;7.17;4.00;;;;;;;16.50;54.90;99678.15;1667748;85;21501;-65
2022/05/07 06:38:52;;;;;;;5.90;4.20;;;;;;;16.61;54.67;99674.06;1668077;85;21169;-68
2022/05/07 06:41:18;;;;;;;5.08;4.50;;;;;;;16.78;54.48;99672.66;1673295;85;20899;-65
2022/05/07 06:43:47;;;;;;;7.45;5.53;;;;;;;17.01;54.46;99674.42;1671443;84;21000;-63
2022/05/07 06:46:17;;;;;;;8.50;4.70;;;;;;;17.21;54.48;99673.89;1673302;85;20953;-65
2022/05/07 06:48:46;;;;;;;7.83;4.42;;;;;;;17.45;54.24;99677.80;1669998;85;20912;-64
2022/05/07 06:51:14;;;;;;;6.12;4.08;;;;;;;17.63;53.42;99675.81;1677884;84;21983;-64
2022/05/07 06:53:41;;;;;;;7.42;4.65;;;;;;;17.80;52.74;99678.38;1678483;85;20961;-66
2022/05/07 06:56:07;;;;;;;8.13;4.80;;;;;;;18.00;52.09;99676.43;1680436;84;20948;-64
2022/05/07 06:58:35;;;;;;;7.62;4.20;;;;;;;18.33;51.39;99669.02;1661292;85;21033;-63
2022/05/07 07:01:01;;;;;;;6.95;3.90;;;;;;;18.60;51.00;99662.98;1669968;85;21063;-63
2022/05/07 07:03:31;;;;;;;5.92;4.25;;;;;;;18.95;49.63;99667.41;1661282;85;21268;-64
2022/05/07 07:05:58;;;;;;;8.55;4.08;;;;;;;19.31;48.77;99672.06;1669902;85;20937;-67
2022/05/07 07:08:25;;;;;;;6.65;4.65;;;;;;;19.80;47.84;99671.17;1672243;85;21501;-65
2022/05/07 07:10:52;;;;;;;5.53;4.05;;;;;;;20.13;47.18;99667.54;1675472;85;20932;-66
2022/05/07 07:13:20;;;;;;;9.63;5.00;;;;;;;20.36;46.45;99672.28;1675629;83;21417;-66
2022/05/07 07:15:48;;;;;;;5.75;4.47;;;;;;;20.52;45.86;99674.34;1673642;84;21111;-65
2022/05/07 07:18:15;;;;;;;4.92;4.42;;;;;;;20.65;45.53;99674.16;1675750;85;20908;-66
2022/05/07 07:20:44;;;;;;;6.72;4.15;;;;;;;20.83;45.60;99672.73;1678597;85;20873;-68
2022/05/07 07:23:11;;;;;;;6.25;4.00;;;;;;;20.98;45.03;99671.76;1662915;85;20972;-64
2022/05/07 07:25:40;;;;;;;5.12;3.90;;;;;;;21.03;44.55;99671.05;1677481;85;20965;-64
2022/05/07 07:28:11;;;;;;;5.37;4.25;;;;;;;21.07;44.34;99662.78;1667186;85;21155;-65
2022/05/07 07:30:38;;;;;;;4.20;3.70;;;;;;;21.14;43.85;99670.28;1675803;84;21024;-68
2022/05/07 07:33:07;;;;;;;4.67;4.08;;;;;;;21.21;43.46;99670.98;1660821;85;20932;-68
2022/05/07 07:35:35;;;;;;;6.25;4.58;;;;;;;21.38;43.14;99666.50;1657951;83;21020;-67
2022/05/07 07:38:02;;;;;;;6.92;4.08;;;;;;;21.64;42.60;99671.99;1691825;83;20932;-68
2022/05/07 07:40:29;;;;;;;5.65;4.05;;;;;;;22.07;42.17;99671.88;1676624;85;21163;-68
2022/05/07 07:42:56;;;;;;;4.95;4.15;;;;;;;22.45;42.03;99667.71;1679036;84;21016;-67
2022/05/07 07:48:10;;;;;;;4.90;4.35;;;;;;;23.22;40.40;99668.30;1673174;85;21007;-69
2022/05/07 07:50:38;;;;;;;9.38;4.50;;;;;;;23.59;39.77;99659.64;1678901;85;21051;-70
2022/05/07 07:53:10;;;;;;;5.83;4.72;;;;;;;24.03;39.20;99662.68;1678763;85;22199;-68
2022/05/07 07:55:37;;;;;;;7.15;4.37;;;;;;;24.59;38.55;99657.34;1678738;85;20953;-65
2022/05/07 07:58:07;;;;;;;5.22;3.98;;;;;;;25.14;37.00;99657.05;1678815;85;20971;-66
2022/05/07 08:00:35;;;;;;;5.60;3.75;;;;;;;25.43;36.88;99661.08;1678753;85;21510;-67
2022/05/07 08:03:12;;;;;;;4.92;4.37;;;;;;;25.68;36.29;99660.45;1678806;85;21420;-66
2022/05/07 08:05:39;;;;;;;4.75;4.17;;;;;;;26.05;35.65;99661.70;1678569;85;21128;-65
2022/05/07 08:13:43;;;;;;;5.85;4.78;;;;;;;26.23;35.14;99657.16;1678718;85;20957;-66
2022/05/07 08:16:10;;;;;;;4.65;4.22;;;;;;;26.23;35.27;99663.98;1678940;85;21583;-66
2022/05/07 08:18:37;;;;;;;7.65;4.42;;;;;;;26.29;35.03;99661.55;1678736;85;21151;-66
2022/05/07 08:21:06;;;;;;;5.55;4.05;;;;;;;26.31;34.93;99656.64;1678616;85;21043;-67
2022/05/07 08:23:32;;;;;;;5.45;3.83;;;;;;;26.28;34.81;99659.36;1679392;83;21008;-66
2022/05/07 08:25:59;;;;;;;5.72;3.83;;;;;;;26.45;34.16;99661.88;1684402;83;20945;-67
2022/05/07 08:28:27;;;;;;;3.87;3.37;;;;;;;26.38;33.97;99659.95;1680223;83;21011;-67
2022/05/07 08:30:53;;;;;;;4.03;3.72;;;;;;;26.74;33.55;99661.66;1683768;83;21666;-67
2022/05/07 08:33:20;;;;;;;5.45;4.05;;;;;;;27.03;33.34;99658.44;1652534;85;20970;-69
2022/05/07 08:36:00;;;;;;;4.50;3.55;;;;;;;27.46;32.92;99656.50;1652434;85;21428;-68
2022/05/07 08:38:27;;;;;;;4.72;3.40;;;;;;;27.72;32.59;99655.34;1656448;85;20964;-69
2022/05/07 08:40:55;;;;;;;4.95;3.72;;;;;;;27.62;32.54;99662.21;1657429;85;20968;-67
2022/05/07 08:43:21;;;;;;;4.78;3.42;;;;;;;27.45;32.66;99657.05;1657355;85;21166;-65
2022/05/07 08:45:50;;;;;;;5.72;3.42;;;;;;;27.56;32.23;99651.84;1657335;85;20916;-65
2022/05/07 08:48:16;;;;;;;5.85;3.30;;;;;;;28.12;31.67;99658.52;1657371;85;21004;-66
2022/05/07 08:50:44;;;;;;;3.80;3.30;;;;;;;28.13;31.57;99654.70;1622763;85;21605;-67
2022/05/07 08:53:11;;;;;;;3.92;3.52;;;;;;;28.15;31.46;99656.59;1684244;85;21502;-68
2022/05/07 08:55:38;;;;;;;4.10;3.40;;;;;;;28.56;31.09;99659.92;1683841;85;21152;-70
2022/05/07 08:58:06;;;;;;;3.40;3.10;;;;;;;29.18;30.27;99662.77;1683791;85;21020;-67
2022/05/07 09:00:34;;;;;;;4.92;2.90;;;;;;;29.77;29.63;99651.52;1683917;84;21030;-72
2022/05/07 09:03:01;;;;;;;4.17;2.98;;;;;;;30.66;28.63;99651.20;1683880;85;20960;-67
2022/05/07 09:05:35;;;;;;;3.30;2.87;;;;;;;31.40;27.44;99652.20;1683913;84;21056;-68
2022/05/07 09:08:03;;;;;;;2.85;2.65;;;;;;;31.70;27.17;99646.97;1683740;84;21887;-68
2022/05/07 09:10:32;;;;;;;3.12;2.90;;;;;;;32.33;26.49;99653.13;1683778;85;20905;-70
2022/05/07 09:13:16;;;;;;;2.85;2.65;;;;;;;32.55;26.04;99650.47;1684077;84;20952;-71
2022/05/07 09:15:56;;;;;;;2.67;2.45;;;;;;;32.50;26.18;99647.80;1683966;84;21558;-68
2022/05/07 09:18:24;;;;;;;5.75;3.62;;;;;;;32.38;26.20;99651.07;1683991;85;20905;-70
2022/05/07 09:21:19;;;;;;;2.98;2.70;;;;;;;31.86;26.65;99648.86;1683941;84;21255;-66
2022/05/07 09:24:00;;;;;;;3.95;3.40;;;;;;;31.14;27.36;99655.95;1683870;85;20949;-64
2022/05/07 09:26:34;;;;;;;4.35;2.85;;;;;;;30.20;28.34;99654.30;1683933;85;20956;-65
2022/05/07 09:29:01;;;;;;;8.58;5.78;;;;;;;29.44;29.39;99662.00;1683616;85;21000;-69
2022/05/07 09:31:32;;;;;;;4.35;3.95;;;;;;;28.78;30.69;99665.27;1684004;85;21020;-67
2022/05/07 09:36:45;;;;;;;4.95;3.80;;;;;;;27.28;33.15;99659.78;1683930;85;21051;-68
2022/05/07 09:39:17;;;;;;;8.25;7.20;;;;;;;26.50;34.14;99655.61;1684097;85;20917;-67
2022/05/07 09:41:46;;;;;;;5.45;4.95;;;;;;;26.06;35.20;99654.64;1683731;85;21543;-66
2022/05/07 09:44:11;;;;;;;4.92;4.17;;;;;;;25.74;36.00;99652.56;1683634;85;20964;-68
2022/05/07 09:46:40;;;;;;;5.28;4.85;;;;;;;25.45;36.46;99654.82;1684086;85;21506;-66
2022/05/07 09:49:06;;;;;;;5.30;4.80;;;;;;;26.10;35.89;99657.09;1683668;85;20961;-66
2022/05/07 09:51:33;;;;;;;6.05;5.55;;;;;;;26.57;35.55;99652.06;1656873;85;20884;-66
2022/05/07 09:59:32;;;;;;;6.55;5.90;;;;;;;29.29;32.45;99634.20;1655972;85;21202;-65
2022/05/07 10:02:11;;;;;;;8.35;6.12;;;;;;;30.26;30.80;99624.33;1684019;85;20889;-65
2022/05/07 10:05:20;;;;;;;7.03;6.40;;;;;;;30.58;30.10;99624.99;1684136;85;20992;-66
2022/05/07 10:08:09;;;;;;;5.62;5.17;;;;;;;30.11;30.83;99618.50;1684063;85;20984;-66
2022/05/07 10:10:37;;;;;;;8.48;5.30;;;;;;;29.23;31.70;99613.44;1684055;85;21509;-66
2022/05/07 10:13:08;;;;;;;9.18;7.40;;;;;;;28.74;32.34;99619.59;1684023;85;21114;-66
2022/05/07 10:15:36;;;;;;;6.80;6.15;;;;;;;28.39;33.09;99619.27;1684114;85;20972;-66
2022/05/07 10:18:07;;;;;;;6.67;6.08;;;;;;;28.10;33.52;99621.08;1684122;85;20959;-66
2022/05/07 10:20:44;;;;;;;7.30;6.70;;;;;;;27.82;33.80;99612.95;1666761;85;20956;-66
2022/05/07 10:23:12;;;;;;;6.42;5.78;;;;;;;27.48;34.39;99614.69;1676746;85;20932;-66
2022/05/07 10:25:43;;;;;;;7.08;6.37;;;;;;;27.05;34.97;99601.64;1684029;85;21270;-68
2022/05/07 10:28:11;;;;;;;6.80;5.60;;;;;;;26.64;35.78;99598.08;1681584;85;20873;-67
2022/05/07 10:30:48;;;;;;;7.33;6.17;;;;;;;26.20;36.89;99606.71;1684047;85;20957;-67
2022/05/07 10:33:15;;;;;;;;;;;;;;;25.82;37.31;99600.83;1686513;84;21027;-66
2022/05/07 10:35:51;;;;;;;6.37;5.50;;;;;;;25.46;38.08;99602.57;1684252;85;20091;-67
2022/05/07 10:38:35;;;;;;;6.80;5.65;;;;;;;24.95;39.40;99608.20;1681238;85;21286;-65
2022/05/07 10:41:09;;;;;;;5.70;5.20;;;;;;;24.52;39.90;99603.70;1678744;85;20933;-66
2022/05/07 10:43:42;;;;;;;6.45;5.83;;;;;;;24.22;41.01;99610.21;1677620;85;21111;-66
2022/05/07 10:46:20;;;;;;;5.20;4.70;;;;;;;24.00;41.37;99597.97;1671431;85;21008;-66
2022/05/07 10:49:06;;;;;;;4.72;4.42;;;;;;;23.76;41.96;99611.52;1678822;85;20913;-65
2022/05/07 10:51:53;;;;;;;7.83;5.10;;;;;;;23.49;43.28;99603.28;1679038;85;21256;-66
2022/05/07 10:54:24;;;;;;;5.95;5.45;;;;;;;23.23;43.80;99602.08;1678704;85;21322;-66
2022/05/07 10:56:54;;;;;;;7.65;6.95;;;;;;;23.19;43.92;99605.02;1678859;84;20904;-65
2022/05/07 10:59:22;;;;;;;9.65;7.65;;;;;;;23.29;43.93;99612.48;1678545;84;21050;-66
2022/05/07 11:01:49;;;;;;;6.42;5.78;;;;;;;23.46;43.60;99611.13;1678812;85;20900;-66
2022/05/07 11:04:19;;;;;;;6.47;5.90;;;;;;;23.58;43.37;99600.97;1678920;85;21266;-68
2022/05/07 11:06:47;;;;;;;6.12;5.05;;;;;;;23.72;43.39;99603.61;1678779;85;21549;-64
2022/05/07 11:09:24;;;;;;;6.87;5.45;;;;;;;23.70;43.37;99584.03;1678849;85;21000;-65
2022/05/07 11:11:54;;;;;;;4.37;3.97;;;;;;;23.70;44.37;99585.39;1679102;85;21051;-65
2022/05/07 11:14:27;;;;;;;3.95;3.65;;;;;;;23.57;44.10;99590.63;1678709;85;20957;-65
2022/05/07 11:16:55;;;;;;;4.60;3.90;;;;;;;23.39;44.05;99568.42;1678857;85;21256;-65
2022/05/07 11:19:28;;;;;;;4.55;3.70;;;;;;;23.14;44.34;99572.91;1678733;85;20905;-68
2022/05/07 11:21:56;;;;;;;4.15;3.83;;;;;;;23.06;44.75;99563.31;1678783;85;21617;-69
2022/05/07 11:24:26;;;;;;;3.80;3.55;;;;;;;23.08;44.54;99561.16;1678982;85;20917;-68
2022/05/07 11:27:05;;;;;;;4.70;3.40;;;;;;;23.12;44.88;99556.89;1678867;85;20940;-68
2022/05/07 11:29:27;;;;;;;3.70;3.37;;;;;;;23.10;44.68;99580.72;1677711;85;21152;-66
2022/05/07 11:32:07;;;;;;;3.40;3.17;;;;;;;23.12;44.87;99565.03;1678718;85;21498;-66
2022/05/07 11:34:38;;;;;;;3.10;2.90;;;;;;;23.06;45.48;99571.98;1678769;85;20873;-67
2022/05/07 11:37:22;;;;;;;3.08;2.85;;;;;;;22.96;45.45;99568.59;1678755;85;20992;-65
2022/05/07 11:40:01;;;;;;;3.22;3.00;;;;;;;22.91;45.20;99555.48;1678808;85;21039;-66
2022/05/07 11:42:46;;;;;;;2.70;2.50;;;;;;;22.84;44.62;99548.85;1678770;85;21175;-66
2022/05/07 11:45:31;;;;;;;3.22;2.90;;;;;;;22.78;45.06;99560.71;1671079;85;28990;-65
2022/05/07 11:48:13;;;;;;;3.42;2.55;;;;;;;22.60;45.40;99563.08;1678759;85;21060;-65
2022/05/07 11:50:43;;;;;;;3.50;2.60;;;;;;;22.41;45.83;99564.40;1678740;85;20972;-68
2022/05/07 11:53:14;;;;;;;2.58;2.37;;;;;;;22.24;46.17;99561.38;1677839;85;21123;-69
2022/05/07 11:55:41;;;;;;;3.22;2.92;;;;;;;22.16;46.34;99563.92;1678857;85;21270;-64
2022/05/07 11:58:21;;;;;;;4.17;2.80;;;;;;;22.15;45.99;99558.23;1678789;85;21469;-71
2022/05/07 12:00:51;;;;;;;3.60;2.90;;;;;;;22.04;45.99;99563.17;1679080;85;21011;-66
2022/05/07 12:03:20;;;;;;;3.30;3.00;;;;;;;21.89;46.33;99542.57;1652257;85;21028;-65
2022/05/07 12:05:49;;;;;;;2.87;2.60;;;;;;;21.81;46.41;99551.87;1653676;85;20928;-70
2022/05/07 12:08:22;;;;;;;3.12;2.87;;;;;;;21.66;46.71;99542.63;1661032;85;21328;-70
2022/05/07 12:10:53;;;;;;;3.20;2.90;;;;;;;21.66;46.71;99542.63;1654549;85;20920;-66
2022/05/07 12:13:21;;;;;;;2.95;2.60;;;;;;;21.60;47.26;99549.82;1678487;85;21442;-65
2022/05/07 12:18:40;;;;;;;4.37;2.67;;;;;;;21.38;47.73;99540.67;1678656;85;20987;-67